CSC3 weather

Drummondville Airport
Drummondville, Quebec, Canada

Public forecast

Using degrees Celsius for public forecast. Weather courtesy of forecast.io.

METAR (pilot weather report)

Closest report is Trois-Rivières Airport, 32.7 nm (60.6 km) NNW. Retrieved 2019/05/21 12:00 UTC (40 minutes ago):

CYRQ 211200Z AUTO 30010G16KT 260V330 9SM OVC031 08/03 A2972 RMK SLP067

TAF (pilot weather forecast)

Closest forecast is Trois-Rivières Airport, 32.7 nm (60.6 km) NNW. Retrieved 2019/05/21 08:00 UTC (5 hours ago):

TAF CYRQ 210738Z 2108/2120 28005KT P6SM BKN030 OVC100 TEMPO 2108/2109 P6SM -SHRA BKN020 OVC100 FM210900 27008KT P6SM SCT030 TEMPO 2109/2112 BKN030 FM211200 27010G20KT P6SM BKN030 OVC080 TEMPO 2112/2118 P6SM -SHRA BECMG 2112/2114 29018G28KT FM211800 32018G32KT P6SM BKN040 OVC080 RMK FCST BASED ON AUTO OBS. NXT FCST BY 211400Z